sensor_id;sensor_type;location;lat;lon;timestamp;P1;durP1;ratioP1;P2;durP2;ratioP2
41466;SDS011;27205;53.690;19.948;2022-12-18T00:04:58;8.10;;;7.50;;
41466;SDS011;27205;53.690;19.948;2022-12-18T00:10:02;7.40;;;6.90;;
41466;SDS011;27205;53.690;19.948;2022-12-18T00:15:06;7.00;;;6.60;;
41466;SDS011;27205;53.690;19.948;2022-12-18T00:20:11;6.90;;;6.40;;
41466;SDS011;27205;53.690;19.948;2022-12-18T00:25:14;6.10;;;5.60;;
41466;SDS011;27205;53.690;19.948;2022-12-18T00:30:18;9.10;;;8.40;;
41466;SDS011;27205;53.690;19.948;2022-12-18T00:35:21;10.90;;;10.00;;
41466;SDS011;27205;53.690;19.948;2022-12-18T00:40:25;10.90;;;10.00;;
41466;SDS011;27205;53.690;19.948;2022-12-18T00:45:29;12.50;;;11.50;;
41466;SDS011;27205;53.690;19.948;2022-12-18T00:50:33;12.60;;;11.50;;
41466;SDS011;27205;53.690;19.948;2022-12-18T00:55:37;11.60;;;10.70;;
41466;SDS011;27205;53.690;19.948;2022-12-18T01:00:42;9.30;;;8.50;;
41466;SDS011;27205;53.690;19.948;2022-12-18T01:05:46;14.50;;;13.40;;
41466;SDS011;27205;53.690;19.948;2022-12-18T01:10:50;22.00;;;20.20;;
41466;SDS011;27205;53.690;19.948;2022-12-18T01:15:53;14.10;;;13.00;;
41466;SDS011;27205;53.690;19.948;2022-12-18T01:20:57;13.20;;;12.20;;
41466;SDS011;27205;53.690;19.948;2022-12-18T01:26:08;12.40;;;11.20;;
41466;SDS011;27205;53.690;19.948;2022-12-18T01:36:26;13.50;;;12.40;;
41466;SDS011;27205;53.690;19.948;2022-12-18T01:41:32;10.30;;;9.20;;
41466;SDS011;27205;53.690;19.948;2022-12-18T01:46:55;12.90;;;11.90;;
41466;SDS011;27205;53.690;19.948;2022-12-18T01:51:59;15.10;;;13.60;;
41466;SDS011;27205;53.690;19.948;2022-12-18T01:57:02;21.40;;;15.10;;
41466;SDS011;27205;53.690;19.948;2022-12-18T02:02:06;15.20;;;12.60;;
41466;SDS011;27205;53.690;19.948;2022-12-18T02:07:17;17.00;;;11.00;;
41466;SDS011;27205;53.690;19.948;2022-12-18T02:13:01;12.70;;;11.40;;
41466;SDS011;27205;53.690;19.948;2022-12-18T02:18:10;25.70;;;10.80;;
41466;SDS011;27205;53.690;19.948;2022-12-18T02:28:56;8.90;;;8.10;;
41466;SDS011;27205;53.690;19.948;2022-12-18T02:34:12;11.30;;;7.20;;
41466;SDS011;27205;53.690;19.948;2022-12-18T02:39:17;10.30;;;9.30;;
41466;SDS011;27205;53.690;19.948;2022-12-18T02:44:24;11.00;;;9.30;;
41466;SDS011;27205;53.690;19.948;2022-12-18T03:00:15;10.00;;;9.10;;
41466;SDS011;27205;53.690;19.948;2022-12-18T03:05:37;8.60;;;8.00;;
41466;SDS011;27205;53.690;19.948;2022-12-18T03:10:51;10.10;;;9.10;;
41466;SDS011;27205;53.690;19.948;2022-12-18T03:16:00;8.80;;;8.00;;
41466;SDS011;27205;53.690;19.948;2022-12-18T03:21:06;8.10;;;7.60;;
41466;SDS011;27205;53.690;19.948;2022-12-18T03:26:15;10.20;;;9.20;;
41466;SDS011;27205;53.690;19.948;2022-12-18T03:31:22;13.00;;;10.60;;
41466;SDS011;27205;53.690;19.948;2022-12-18T03:36:28;16.00;;;11.20;;
41466;SDS011;27205;53.690;19.948;2022-12-18T03:41:33;10.50;;;9.60;;
41466;SDS011;27205;53.690;19.948;2022-12-18T03:46:48;8.60;;;7.90;;
41466;SDS011;27205;53.690;19.948;2022-12-18T03:52:01;12.00;;;10.80;;
41466;SDS011;27205;53.690;19.948;2022-12-18T03:57:10;13.00;;;11.80;;
41466;SDS011;27205;53.690;19.948;2022-12-18T04:02:17;12.80;;;11.30;;
41466;SDS011;27205;53.690;19.948;2022-12-18T04:07:21;13.00;;;11.60;;
41466;SDS011;27205;53.690;19.948;2022-12-18T04:12:26;14.50;;;13.10;;
41466;SDS011;27205;53.690;19.948;2022-12-18T04:17:32;11.80;;;10.80;;
41466;SDS011;27205;53.690;19.948;2022-12-18T04:22:35;10.50;;;9.70;;
41466;SDS011;27205;53.690;19.948;2022-12-18T04:27:39;13.00;;;11.80;;
41466;SDS011;27205;53.690;19.948;2022-12-18T04:32:42;19.80;;;15.50;;
41466;SDS011;27205;53.690;19.948;2022-12-18T04:37:53;12.90;;;11.60;;
41466;SDS011;27205;53.690;19.948;2022-12-18T04:42:57;13.40;;;11.90;;
41466;SDS011;27205;53.690;19.948;2022-12-18T04:48:00;20.40;;;18.30;;
41466;SDS011;27205;53.690;19.948;2022-12-18T04:53:05;20.10;;;18.00;;
41466;SDS011;27205;53.690;19.948;2022-12-18T04:58:08;19.70;;;16.80;;
41466;SDS011;27205;53.690;19.948;2022-12-18T05:03:12;27.60;;;22.00;;
41466;SDS011;27205;53.690;19.948;2022-12-18T05:08:15;26.80;;;21.30;;
41466;SDS011;27205;53.690;19.948;2022-12-18T05:13:19;29.90;;;22.20;;
41466;SDS011;27205;53.690;19.948;2022-12-18T05:18:23;24.20;;;21.50;;
41466;SDS011;27205;53.690;19.948;2022-12-18T05:23:27;23.70;;;21.30;;
41466;SDS011;27205;53.690;19.948;2022-12-18T05:28:32;27.60;;;23.60;;
41466;SDS011;27205;53.690;19.948;2022-12-18T05:33:37;27.80;;;24.80;;
41466;SDS011;27205;53.690;19.948;2022-12-18T05:38:41;28.40;;;25.30;;
41466;SDS011;27205;53.690;19.948;2022-12-18T05:43:44;29.90;;;26.60;;
41466;SDS011;27205;53.690;19.948;2022-12-18T05:48:48;29.10;;;24.30;;
41466;SDS011;27205;53.690;19.948;2022-12-18T05:53:53;26.00;;;23.50;;
41466;SDS011;27205;53.690;19.948;2022-12-18T05:58:56;26.50;;;23.80;;
41466;SDS011;27205;53.690;19.948;2022-12-18T06:03:59;28.10;;;24.90;;
41466;SDS011;27205;53.690;19.948;2022-12-18T06:09:03;27.00;;;24.30;;
41466;SDS011;27205;53.690;19.948;2022-12-18T06:14:12;27.40;;;24.70;;
41466;SDS011;27205;53.690;19.948;2022-12-18T06:19:15;28.30;;;25.20;;
41466;SDS011;27205;53.690;19.948;2022-12-18T06:24:19;28.10;;;25.30;;
41466;SDS011;27205;53.690;19.948;2022-12-18T06:29:23;30.00;;;27.00;;
41466;SDS011;27205;53.690;19.948;2022-12-18T06:34:26;24.10;;;21.70;;
41466;SDS011;27205;53.690;19.948;2022-12-18T06:39:29;25.70;;;23.40;;
41466;SDS011;27205;53.690;19.948;2022-12-18T06:44:33;26.50;;;24.10;;
41466;SDS011;27205;53.690;19.948;2022-12-18T06:49:36;27.30;;;24.70;;
41466;SDS011;27205;53.690;19.948;2022-12-18T06:54:40;25.70;;;23.40;;
41466;SDS011;27205;53.690;19.948;2022-12-18T06:59:43;27.70;;;25.30;;
41466;SDS011;27205;53.690;19.948;2022-12-18T07:04:47;27.00;;;24.50;;
41466;SDS011;27205;53.690;19.948;2022-12-18T07:09:53;26.50;;;24.00;;
41466;SDS011;27205;53.690;19.948;2022-12-18T07:14:57;26.80;;;24.50;;
41466;SDS011;27205;53.690;19.948;2022-12-18T07:20:01;26.10;;;23.60;;
41466;SDS011;27205;53.690;19.948;2022-12-18T07:25:06;24.70;;;22.50;;
41466;SDS011;27205;53.690;19.948;2022-12-18T07:30:10;22.50;;;20.50;;
41466;SDS011;27205;53.690;19.948;2022-12-18T07:35:15;19.80;;;18.10;;
41466;SDS011;27205;53.690;19.948;2022-12-18T07:40:26;18.40;;;16.90;;
41466;SDS011;27205;53.690;19.948;2022-12-18T07:45:30;17.20;;;15.80;;
41466;SDS011;27205;53.690;19.948;2022-12-18T07:50:34;19.30;;;17.60;;
41466;SDS011;27205;53.690;19.948;2022-12-18T07:55:37;21.20;;;19.40;;
41466;SDS011;27205;53.690;19.948;2022-12-18T08:06:08;17.70;;;16.20;;
41466;SDS011;27205;53.690;19.948;2022-12-18T08:11:12;22.10;;;20.30;;
41466;SDS011;27205;53.690;19.948;2022-12-18T08:16:16;20.40;;;18.80;;
41466;SDS011;27205;53.690;19.948;2022-12-18T08:21:22;21.00;;;19.30;;
41466;SDS011;27205;53.690;19.948;2022-12-18T08:26:29;21.20;;;19.40;;
41466;SDS011;27205;53.690;19.948;2022-12-18T08:31:34;22.60;;;20.80;;
41466;SDS011;27205;53.690;19.948;2022-12-18T08:36:37;21.70;;;19.90;;
41466;SDS011;27205;53.690;19.948;2022-12-18T08:41:41;23.90;;;21.70;;
41466;SDS011;27205;53.690;19.948;2022-12-18T08:46:45;23.90;;;21.80;;
41466;SDS011;27205;53.690;19.948;2022-12-18T09:03:18;25.60;;;23.60;;
41466;SDS011;27205;53.690;19.948;2022-12-18T09:08:28;21.40;;;19.70;;
41466;SDS011;27205;53.690;19.948;2022-12-18T09:13:32;20.60;;;18.90;;
41466;SDS011;27205;53.690;19.948;2022-12-18T09:18:36;23.50;;;21.60;;
41466;SDS011;27205;53.690;19.948;2022-12-18T09:23:40;24.70;;;22.80;;
41466;SDS011;27205;53.690;19.948;2022-12-18T09:28:43;24.10;;;22.20;;
41466;SDS011;27205;53.690;19.948;2022-12-18T09:33:47;26.30;;;24.30;;
41466;SDS011;27205;53.690;19.948;2022-12-18T09:38:52;25.30;;;23.30;;
41466;SDS011;27205;53.690;19.948;2022-12-18T09:49:05;27.40;;;25.10;;
41466;SDS011;27205;53.690;19.948;2022-12-18T09:54:20;26.00;;;23.90;;
41466;SDS011;27205;53.690;19.948;2022-12-18T09:59:46;26.20;;;24.10;;
41466;SDS011;27205;53.690;19.948;2022-12-18T10:05:00;25.60;;;23.50;;
41466;SDS011;27205;53.690;19.948;2022-12-18T10:10:17;25.20;;;23.20;;
41466;SDS011;27205;53.690;19.948;2022-12-18T10:21:13;21.20;;;19.50;;
41466;SDS011;27205;53.690;19.948;2022-12-18T10:26:24;29.20;;;26.80;;
41466;SDS011;27205;53.690;19.948;2022-12-18T10:31:28;26.40;;;24.20;;
41466;SDS011;27205;53.690;19.948;2022-12-18T10:36:31;26.90;;;24.60;;
41466;SDS011;27205;53.690;19.948;2022-12-18T10:41:34;27.10;;;25.00;;
41466;SDS011;27205;53.690;19.948;2022-12-18T10:46:38;26.40;;;24.30;;
41466;SDS011;27205;53.690;19.948;2022-12-18T10:51:42;27.80;;;25.50;;
41466;SDS011;27205;53.690;19.948;2022-12-18T10:56:45;27.20;;;25.00;;
41466;SDS011;27205;53.690;19.948;2022-12-18T11:01:55;27.60;;;25.30;;
41466;SDS011;27205;53.690;19.948;2022-12-18T11:07:01;30.80;;;28.20;;
41466;SDS011;27205;53.690;19.948;2022-12-18T11:12:19;29.10;;;26.70;;
41466;SDS011;27205;53.690;19.948;2022-12-18T11:17:29;24.90;;;22.80;;
41466;SDS011;27205;53.690;19.948;2022-12-18T11:22:36;30.00;;;27.50;;
41466;SDS011;27205;53.690;19.948;2022-12-18T11:27:41;30.80;;;28.30;;
41466;SDS011;27205;53.690;19.948;2022-12-18T11:38:37;30.90;;;28.40;;
41466;SDS011;27205;53.690;19.948;2022-12-18T11:43:52;32.20;;;29.50;;
41466;SDS011;27205;53.690;19.948;2022-12-18T11:54:12;32.40;;;29.80;;
41466;SDS011;27205;53.690;19.948;2022-12-18T12:25:40;31.20;;;28.70;;
41466;SDS011;27205;53.690;19.948;2022-12-18T12:41:26;33.30;;;30.50;;
41466;SDS011;27205;53.690;19.948;2022-12-18T12:46:52;30.80;;;28.20;;
41466;SDS011;27205;53.690;19.948;2022-12-18T12:52:10;31.40;;;28.90;;
41466;SDS011;27205;53.690;19.948;2022-12-18T12:57:29;31.60;;;29.00;;
41466;SDS011;27205;53.690;19.948;2022-12-18T13:02:42;32.60;;;29.80;;
41466;SDS011;27205;53.690;19.948;2022-12-18T13:08:07;33.10;;;30.40;;
41466;SDS011;27205;53.690;19.948;2022-12-18T13:13:13;32.40;;;29.70;;
41466;SDS011;27205;53.690;19.948;2022-12-18T13:18:26;33.40;;;30.40;;
41466;SDS011;27205;53.690;19.948;2022-12-18T13:33:48;32.10;;;29.60;;
41466;SDS011;27205;53.690;19.948;2022-12-18T13:39:20;33.10;;;30.30;;
41466;SDS011;27205;53.690;19.948;2022-12-18T13:44:40;37.70;;;34.50;;
41466;SDS011;27205;53.690;19.948;2022-12-18T13:49:44;36.70;;;33.70;;
41466;SDS011;27205;53.690;19.948;2022-12-18T13:54:59;35.50;;;32.60;;
41466;SDS011;27205;53.690;19.948;2022-12-18T14:05:33;35.50;;;32.30;;
41466;SDS011;27205;53.690;19.948;2022-12-18T14:10:42;36.10;;;33.10;;
41466;SDS011;27205;53.690;19.948;2022-12-18T14:15:51;37.10;;;33.90;;
41466;SDS011;27205;53.690;19.948;2022-12-18T14:20:55;38.30;;;35.10;;
41466;SDS011;27205;53.690;19.948;2022-12-18T14:26:02;38.30;;;34.90;;
41466;SDS011;27205;53.690;19.948;2022-12-18T14:31:21;36.30;;;33.10;;
41466;SDS011;27205;53.690;19.948;2022-12-18T14:36:28;33.00;;;30.10;;
41466;SDS011;27205;53.690;19.948;2022-12-18T14:41:32;34.30;;;31.40;;
41466;SDS011;27205;53.690;19.948;2022-12-18T14:46:36;37.10;;;34.00;;
41466;SDS011;27205;53.690;19.948;2022-12-18T14:51:42;34.50;;;31.50;;
41466;SDS011;27205;53.690;19.948;2022-12-18T15:02:34;31.90;;;29.30;;
41466;SDS011;27205;53.690;19.948;2022-12-18T15:07:43;39.00;;;35.60;;
41466;SDS011;27205;53.690;19.948;2022-12-18T15:12:49;34.30;;;31.20;;
41466;SDS011;27205;53.690;19.948;2022-12-18T15:23:24;36.10;;;33.00;;
41466;SDS011;27205;53.690;19.948;2022-12-18T15:28:32;34.70;;;31.70;;
41466;SDS011;27205;53.690;19.948;2022-12-18T15:34:00;33.70;;;30.80;;
41466;SDS011;27205;53.690;19.948;2022-12-18T15:39:11;32.60;;;29.80;;
41466;SDS011;27205;53.690;19.948;2022-12-18T15:44:21;34.70;;;31.60;;
41466;SDS011;27205;53.690;19.948;2022-12-18T15:49:26;34.20;;;31.10;;
41466;SDS011;27205;53.690;19.948;2022-12-18T15:54:29;34.60;;;31.60;;
41466;SDS011;27205;53.690;19.948;2022-12-18T15:59:52;33.90;;;31.00;;
41466;SDS011;27205;53.690;19.948;2022-12-18T16:04:59;31.20;;;28.40;;
41466;SDS011;27205;53.690;19.948;2022-12-18T16:10:03;25.20;;;23.10;;
41466;SDS011;27205;53.690;19.948;2022-12-18T16:15:09;32.80;;;30.00;;
41466;SDS011;27205;53.690;19.948;2022-12-18T16:20:24;32.80;;;29.80;;
41466;SDS011;27205;53.690;19.948;2022-12-18T16:25:28;32.20;;;29.40;;
41466;SDS011;27205;53.690;19.948;2022-12-18T16:35:42;31.40;;;28.70;;
41466;SDS011;27205;53.690;19.948;2022-12-18T16:40:46;33.20;;;30.30;;
41466;SDS011;27205;53.690;19.948;2022-12-18T16:46:09;28.70;;;26.30;;
41466;SDS011;27205;53.690;19.948;2022-12-18T16:51:12;30.00;;;27.40;;
41466;SDS011;27205;53.690;19.948;2022-12-18T16:56:16;31.90;;;29.20;;
41466;SDS011;27205;53.690;19.948;2022-12-18T17:01:19;25.50;;;23.40;;
41466;SDS011;27205;53.690;19.948;2022-12-18T17:11:29;31.30;;;28.70;;
41466;SDS011;27205;53.690;19.948;2022-12-18T17:16:34;32.50;;;29.80;;
41466;SDS011;27205;53.690;19.948;2022-12-18T17:21:38;32.10;;;29.50;;
41466;SDS011;27205;53.690;19.948;2022-12-18T17:31:47;26.30;;;24.20;;
41466;SDS011;27205;53.690;19.948;2022-12-18T17:36:50;31.50;;;28.80;;
41466;SDS011;27205;53.690;19.948;2022-12-18T17:41:54;27.90;;;25.50;;
41466;SDS011;27205;53.690;19.948;2022-12-18T17:52:02;29.40;;;26.80;;
41466;SDS011;27205;53.690;19.948;2022-12-18T17:57:05;26.00;;;23.80;;
41466;SDS011;27205;53.690;19.948;2022-12-18T18:02:10;29.60;;;26.90;;
41466;SDS011;27205;53.690;19.948;2022-12-18T18:07:14;29.40;;;26.90;;
41466;SDS011;27205;53.690;19.948;2022-12-18T18:12:18;29.50;;;27.00;;
41466;SDS011;27205;53.690;19.948;2022-12-18T18:17:40;24.10;;;22.10;;
41466;SDS011;27205;53.690;19.948;2022-12-18T18:22:44;28.30;;;25.80;;
41466;SDS011;27205;53.690;19.948;2022-12-18T18:27:47;21.50;;;19.70;;
41466;SDS011;27205;53.690;19.948;2022-12-18T18:32:52;23.70;;;21.80;;
41466;SDS011;27205;53.690;19.948;2022-12-18T18:37:56;26.40;;;24.20;;
41466;SDS011;27205;53.690;19.948;2022-12-18T18:43:00;26.60;;;24.40;;
41466;SDS011;27205;53.690;19.948;2022-12-18T18:48:06;25.20;;;23.20;;
41466;SDS011;27205;53.690;19.948;2022-12-18T18:53:09;25.00;;;22.90;;
41466;SDS011;27205;53.690;19.948;2022-12-18T18:58:13;22.70;;;20.80;;
41466;SDS011;27205;53.690;19.948;2022-12-18T19:03:17;26.10;;;23.90;;
41466;SDS011;27205;53.690;19.948;2022-12-18T19:08:28;27.00;;;24.80;;
41466;SDS011;27205;53.690;19.948;2022-12-18T19:13:33;47.70;;;43.50;;
41466;SDS011;27205;53.690;19.948;2022-12-18T19:18:38;74.40;;;67.10;;
41466;SDS011;27205;53.690;19.948;2022-12-18T19:23:42;88.40;;;79.80;;
41466;SDS011;27205;53.690;19.948;2022-12-18T19:28:46;60.70;;;54.90;;
41466;SDS011;27205;53.690;19.948;2022-12-18T19:33:49;34.00;;;31.00;;
41466;SDS011;27205;53.690;19.948;2022-12-18T19:38:54;28.90;;;26.50;;
41466;SDS011;27205;53.690;19.948;2022-12-18T19:43:59;23.60;;;21.80;;
41466;SDS011;27205;53.690;19.948;2022-12-18T19:49:10;26.70;;;24.60;;
41466;SDS011;27205;53.690;19.948;2022-12-18T19:54:23;25.20;;;23.10;;
41466;SDS011;27205;53.690;19.948;2022-12-18T19:59:29;28.70;;;26.40;;
41466;SDS011;27205;53.690;19.948;2022-12-18T20:04:32;29.60;;;27.00;;
41466;SDS011;27205;53.690;19.948;2022-12-18T20:09:36;26.70;;;24.50;;
41466;SDS011;27205;53.690;19.948;2022-12-18T20:14:40;26.20;;;24.00;;
41466;SDS011;27205;53.690;19.948;2022-12-18T20:19:43;24.10;;;22.10;;
41466;SDS011;27205;53.690;19.948;2022-12-18T20:24:47;25.60;;;23.60;;
41466;SDS011;27205;53.690;19.948;2022-12-18T20:29:52;27.70;;;25.40;;
41466;SDS011;27205;53.690;19.948;2022-12-18T20:34:57;25.60;;;23.60;;
41466;SDS011;27205;53.690;19.948;2022-12-18T20:40:04;28.80;;;26.40;;
41466;SDS011;27205;53.690;19.948;2022-12-18T20:45:12;26.70;;;24.50;;
41466;SDS011;27205;53.690;19.948;2022-12-18T20:50:18;28.30;;;25.90;;
41466;SDS011;27205;53.690;19.948;2022-12-18T20:55:22;27.10;;;24.80;;
41466;SDS011;27205;53.690;19.948;2022-12-18T21:00:25;28.30;;;25.80;;
41466;SDS011;27205;53.690;19.948;2022-12-18T21:16:41;27.30;;;24.90;;
41466;SDS011;27205;53.690;19.948;2022-12-18T21:21:48;26.50;;;24.10;;
41466;SDS011;27205;53.690;19.948;2022-12-18T21:31:56;20.10;;;18.40;;
41466;SDS011;27205;53.690;19.948;2022-12-18T21:37:00;19.60;;;17.90;;
41466;SDS011;27205;53.690;19.948;2022-12-18T21:42:04;31.80;;;29.10;;
41466;SDS011;27205;53.690;19.948;2022-12-18T21:47:26;27.90;;;25.50;;
41466;SDS011;27205;53.690;19.948;2022-12-18T21:52:30;21.00;;;19.40;;
41466;SDS011;27205;53.690;19.948;2022-12-18T21:57:35;28.00;;;25.60;;
41466;SDS011;27205;53.690;19.948;2022-12-18T22:02:39;25.40;;;23.20;;
41466;SDS011;27205;53.690;19.948;2022-12-18T22:07:43;31.60;;;29.00;;
41466;SDS011;27205;53.690;19.948;2022-12-18T22:12:46;28.00;;;25.60;;
41466;SDS011;27205;53.690;19.948;2022-12-18T22:17:50;31.50;;;28.70;;
41466;SDS011;27205;53.690;19.948;2022-12-18T22:23:01;30.10;;;27.40;;
41466;SDS011;27205;53.690;19.948;2022-12-18T22:28:08;30.50;;;27.90;;
41466;SDS011;27205;53.690;19.948;2022-12-18T22:33:30;29.30;;;26.80;;
41466;SDS011;27205;53.690;19.948;2022-12-18T22:38:34;29.50;;;27.00;;
41466;SDS011;27205;53.690;19.948;2022-12-18T22:43:37;28.30;;;25.80;;
41466;SDS011;27205;53.690;19.948;2022-12-18T22:48:40;27.80;;;25.40;;
41466;SDS011;27205;53.690;19.948;2022-12-18T22:53:44;26.40;;;24.20;;
41466;SDS011;27205;53.690;19.948;2022-12-18T22:58:50;25.80;;;23.70;;
41466;SDS011;27205;53.690;19.948;2022-12-18T23:03:54;27.20;;;24.90;;
41466;SDS011;27205;53.690;19.948;2022-12-18T23:08:57;27.10;;;24.90;;
41466;SDS011;27205;53.690;19.948;2022-12-18T23:14:01;27.20;;;24.90;;
41466;SDS011;27205;53.690;19.948;2022-12-18T23:19:05;27.90;;;25.40;;
41466;SDS011;27205;53.690;19.948;2022-12-18T23:24:08;25.10;;;22.90;;
41466;SDS011;27205;53.690;19.948;2022-12-18T23:29:12;25.60;;;23.40;;
41466;SDS011;27205;53.690;19.948;2022-12-18T23:34:16;27.50;;;25.20;;
41466;SDS011;27205;53.690;19.948;2022-12-18T23:39:20;25.60;;;23.40;;
41466;SDS011;27205;53.690;19.948;2022-12-18T23:44:31;25.80;;;23.60;;
41466;SDS011;27205;53.690;19.948;2022-12-18T23:49:35;26.50;;;24.10;;
41466;SDS011;27205;53.690;19.948;2022-12-18T23:54:39;29.00;;;26.40;;
41466;SDS011;27205;53.690;19.948;2022-12-18T23:59:44;25.70;;;23.50;;
